sensor_id;sensor_type;location;lat;lon;timestamp;temperature;humidity
26212;DHT22;13951;49.516;6.094;2022-08-05T00:02:03;23.60;99.90
26212;DHT22;13951;49.516;6.094;2022-08-05T00:04:39;23.60;99.90
26212;DHT22;13951;49.516;6.094;2022-08-05T00:07:13;23.50;99.90
26212;DHT22;13951;49.516;6.094;2022-08-05T00:10:06;23.60;99.90
26212;DHT22;13951;49.516;6.094;2022-08-05T00:12:42;23.50;99.90
26212;DHT22;13951;49.516;6.094;2022-08-05T00:15:30;23.50;99.90
26212;DHT22;13951;49.516;6.094;2022-08-05T00:18:30;23.50;99.90
26212;DHT22;13951;49.516;6.094;2022-08-05T00:21:19;23.50;99.90
26212;DHT22;13951;49.516;6.094;2022-08-05T00:24:08;23.60;99.90
26212;DHT22;13951;49.516;6.094;2022-08-05T00:26:43;23.60;99.90
26212;DHT22;13951;49.516;6.094;2022-08-05T00:29:25;23.60;99.90
26212;DHT22;13951;49.516;6.094;2022-08-05T00:32:09;23.60;99.90
26212;DHT22;13951;49.516;6.094;2022-08-05T00:34:47;23.60;99.90
26212;DHT22;13951;49.516;6.094;2022-08-05T00:37:39;23.60;99.90
26212;DHT22;13951;49.516;6.094;2022-08-05T00:40:26;23.60;99.90
26212;DHT22;13951;49.516;6.094;2022-08-05T00:43:01;23.60;99.90
26212;DHT22;13951;49.516;6.094;2022-08-05T00:45:39;23.60;99.90
26212;DHT22;13951;49.516;6.094;2022-08-05T00:48:20;23.60;99.90
26212;DHT22;13951;49.516;6.094;2022-08-05T00:51:03;23.60;99.90
26212;DHT22;13951;49.516;6.094;2022-08-05T00:53:56;23.60;99.90
26212;DHT22;13951;49.516;6.094;2022-08-05T00:56:35;23.50;99.90
26212;DHT22;13951;49.516;6.094;2022-08-05T00:59:09;23.50;99.90
26212;DHT22;13951;49.516;6.094;2022-08-05T01:01:42;23.40;99.90
26212;DHT22;13951;49.516;6.094;2022-08-05T01:04:20;23.40;99.90
26212;DHT22;13951;49.516;6.094;2022-08-05T01:07:01;23.40;99.90
26212;DHT22;13951;49.516;6.094;2022-08-05T01:09:37;23.40;99.90
26212;DHT22;13951;49.516;6.094;2022-08-05T01:12:13;23.40;99.90
26212;DHT22;13951;49.516;6.094;2022-08-05T01:15:01;23.40;99.90
26212;DHT22;13951;49.516;6.094;2022-08-05T01:17:44;23.50;99.90
26212;DHT22;13951;49.516;6.094;2022-08-05T01:30:00;23.20;99.90
26212;DHT22;13951;49.516;6.094;2022-08-05T01:32:38;23.20;99.90
26212;DHT22;13951;49.516;6.094;2022-08-05T01:35:19;23.20;99.90
26212;DHT22;13951;49.516;6.094;2022-08-05T01:38:16;23.20;99.90
26212;DHT22;13951;49.516;6.094;2022-08-05T01:41:01;23.20;99.90
26212;DHT22;13951;49.516;6.094;2022-08-05T01:43:39;23.20;99.90
26212;DHT22;13951;49.516;6.094;2022-08-05T01:46:15;23.20;99.90
26212;DHT22;13951;49.516;6.094;2022-08-05T01:49:11;23.10;99.90
26212;DHT22;13951;49.516;6.094;2022-08-05T01:51:59;23.10;99.90
26212;DHT22;13951;49.516;6.094;2022-08-05T01:54:55;23.10;99.90
26212;DHT22;13951;49.516;6.094;2022-08-05T01:57:35;22.80;99.90
26212;DHT22;13951;49.516;6.094;2022-08-05T02:00:30;22.60;99.90
26212;DHT22;13951;49.516;6.094;2022-08-05T02:03:18;22.40;99.90
26212;DHT22;13951;49.516;6.094;2022-08-05T02:06:05;22.30;99.90
26212;DHT22;13951;49.516;6.094;2022-08-05T02:08:59;22.30;99.90
26212;DHT22;13951;49.516;6.094;2022-08-05T02:12:04;22.30;99.90
26212;DHT22;13951;49.516;6.094;2022-08-05T02:17:28;22.20;99.90
26212;DHT22;13951;49.516;6.094;2022-08-05T02:20:22;22.30;99.90
26212;DHT22;13951;49.516;6.094;2022-08-05T02:23:00;22.30;99.90
26212;DHT22;13951;49.516;6.094;2022-08-05T02:25:40;22.20;99.90
26212;DHT22;13951;49.516;6.094;2022-08-05T02:28:24;22.20;99.90
26212;DHT22;13951;49.516;6.094;2022-08-05T02:31:10;22.10;99.90
26212;DHT22;13951;49.516;6.094;2022-08-05T02:33:50;22.00;99.90
26212;DHT22;13951;49.516;6.094;2022-08-05T02:36:30;21.90;99.90
26212;DHT22;13951;49.516;6.094;2022-08-05T02:39:05;21.80;99.90
26212;DHT22;13951;49.516;6.094;2022-08-05T02:41:41;21.70;99.90
26212;DHT22;13951;49.516;6.094;2022-08-05T02:44:35;21.60;99.90
26212;DHT22;13951;49.516;6.094;2022-08-05T02:47:10;21.60;99.90
26212;DHT22;13951;49.516;6.094;2022-08-05T02:49:47;21.50;99.90
26212;DHT22;13951;49.516;6.094;2022-08-05T02:52:21;21.40;99.90
26212;DHT22;13951;49.516;6.094;2022-08-05T02:55:02;21.40;99.90
26212;DHT22;13951;49.516;6.094;2022-08-05T02:57:43;21.30;99.90
26212;DHT22;13951;49.516;6.094;2022-08-05T03:00:37;21.30;99.90
26212;DHT22;13951;49.516;6.094;2022-08-05T03:03:15;21.20;99.90
26212;DHT22;13951;49.516;6.094;2022-08-05T03:05:51;21.20;99.90
26212;DHT22;13951;49.516;6.094;2022-08-05T03:08:45;21.20;99.90
26212;DHT22;13951;49.516;6.094;2022-08-05T03:11:25;21.30;99.90
26212;DHT22;13951;49.516;6.094;2022-08-05T03:14:18;21.40;99.90
26212;DHT22;13951;49.516;6.094;2022-08-05T03:16:51;21.40;99.90
26212;DHT22;13951;49.516;6.094;2022-08-05T03:19:28;21.40;99.90
26212;DHT22;13951;49.516;6.094;2022-08-05T03:22:06;21.40;99.90
26212;DHT22;13951;49.516;6.094;2022-08-05T03:24:51;21.40;99.90
26212;DHT22;13951;49.516;6.094;2022-08-05T03:27:25;21.50;99.90
26212;DHT22;13951;49.516;6.094;2022-08-05T03:30:19;21.50;99.90
26212;DHT22;13951;49.516;6.094;2022-08-05T03:32:53;21.50;99.90
26212;DHT22;13951;49.516;6.094;2022-08-05T03:35:27;21.40;99.90
26212;DHT22;13951;49.516;6.094;2022-08-05T03:38:01;21.40;99.90
26212;DHT22;13951;49.516;6.094;2022-08-05T03:40:39;21.40;99.90
26212;DHT22;13951;49.516;6.094;2022-08-05T03:43:16;21.40;99.90
26212;DHT22;13951;49.516;6.094;2022-08-05T03:46:11;21.30;99.90
26212;DHT22;13951;49.516;6.094;2022-08-05T03:48:44;21.40;99.90
26212;DHT22;13951;49.516;6.094;2022-08-05T03:51:29;21.50;99.90
26212;DHT22;13951;49.516;6.094;2022-08-05T03:54:53;21.50;99.90
26212;DHT22;13951;49.516;6.094;2022-08-05T03:57:51;21.50;99.90
26212;DHT22;13951;49.516;6.094;2022-08-05T04:00:25;21.60;99.90
26212;DHT22;13951;49.516;6.094;2022-08-05T04:03:04;21.50;99.90
26212;DHT22;13951;49.516;6.094;2022-08-05T04:05:38;21.50;99.90
26212;DHT22;13951;49.516;6.094;2022-08-05T04:08:21;21.50;99.90
26212;DHT22;13951;49.516;6.094;2022-08-05T04:11:39;21.40;99.90
26212;DHT22;13951;49.516;6.094;2022-08-05T04:15:53;21.20;99.90
26212;DHT22;13951;49.516;6.094;2022-08-05T04:19:16;21.10;99.90
26212;DHT22;13951;49.516;6.094;2022-08-05T04:21:55;21.10;99.90
26212;DHT22;13951;49.516;6.094;2022-08-05T04:24:44;21.10;99.90
26212;DHT22;13951;49.516;6.094;2022-08-05T04:27:24;21.00;99.90
26212;DHT22;13951;49.516;6.094;2022-08-05T04:30:15;21.10;99.90
26212;DHT22;13951;49.516;6.094;2022-08-05T04:32:48;21.10;99.90
26212;DHT22;13951;49.516;6.094;2022-08-05T04:35:22;21.20;99.90
26212;DHT22;13951;49.516;6.094;2022-08-05T04:37:55;21.30;99.90
26212;DHT22;13951;49.516;6.094;2022-08-05T04:40:39;21.40;99.90
26212;DHT22;13951;49.516;6.094;2022-08-05T04:43:19;21.40;99.90
26212;DHT22;13951;49.516;6.094;2022-08-05T04:45:54;21.40;99.90
26212;DHT22;13951;49.516;6.094;2022-08-05T04:48:28;21.40;99.90
26212;DHT22;13951;49.516;6.094;2022-08-05T04:51:01;21.40;99.90
26212;DHT22;13951;49.516;6.094;2022-08-05T04:53:43;21.40;99.90
26212;DHT22;13951;49.516;6.094;2022-08-05T04:56:17;21.30;99.90
26212;DHT22;13951;49.516;6.094;2022-08-05T04:59:08;21.30;99.90
26212;DHT22;13951;49.516;6.094;2022-08-05T05:01:56;21.30;99.90
26212;DHT22;13951;49.516;6.094;2022-08-05T05:04:50;21.30;99.90
26212;DHT22;13951;49.516;6.094;2022-08-05T05:07:23;21.30;99.90
26212;DHT22;13951;49.516;6.094;2022-08-05T05:10:04;21.20;99.90
26212;DHT22;13951;49.516;6.094;2022-08-05T05:12:38;21.30;99.90
26212;DHT22;13951;49.516;6.094;2022-08-05T05:15:11;21.30;99.90
26212;DHT22;13951;49.516;6.094;2022-08-05T05:17:49;21.30;99.90
26212;DHT22;13951;49.516;6.094;2022-08-05T05:20:29;21.30;99.90
26212;DHT22;13951;49.516;6.094;2022-08-05T05:23:03;21.20;99.90
26212;DHT22;13951;49.516;6.094;2022-08-05T05:25:51;21.20;99.90
26212;DHT22;13951;49.516;6.094;2022-08-05T05:28:24;21.10;99.90
26212;DHT22;13951;49.516;6.094;2022-08-05T05:31:01;21.10;99.90
26212;DHT22;13951;49.516;6.094;2022-08-05T05:33:37;21.10;99.90
26212;DHT22;13951;49.516;6.094;2022-08-05T05:36:30;21.10;99.90
26212;DHT22;13951;49.516;6.094;2022-08-05T05:39:04;21.00;99.90
26212;DHT22;13951;49.516;6.094;2022-08-05T05:41:42;21.00;99.90
26212;DHT22;13951;49.516;6.094;2022-08-05T05:44:26;21.00;99.90
26212;DHT22;13951;49.516;6.094;2022-08-05T05:47:09;21.00;99.90
26212;DHT22;13951;49.516;6.094;2022-08-05T05:49:54;21.00;99.90
26212;DHT22;13951;49.516;6.094;2022-08-05T05:52:33;20.90;99.90
26212;DHT22;13951;49.516;6.094;2022-08-05T05:55:13;20.90;99.90
26212;DHT22;13951;49.516;6.094;2022-08-05T05:57:47;20.90;99.90
26212;DHT22;13951;49.516;6.094;2022-08-05T06:00:25;20.80;99.90
26212;DHT22;13951;49.516;6.094;2022-08-05T06:03:03;20.80;99.90
26212;DHT22;13951;49.516;6.094;2022-08-05T06:05:56;20.80;99.90
26212;DHT22;13951;49.516;6.094;2022-08-05T06:08:29;20.90;99.90
26212;DHT22;13951;49.516;6.094;2022-08-05T06:11:05;20.80;99.90
26212;DHT22;13951;49.516;6.094;2022-08-05T06:13:42;20.80;99.90
26212;DHT22;13951;49.516;6.094;2022-08-05T06:16:26;20.90;99.90
26212;DHT22;13951;49.516;6.094;2022-08-05T06:19:09;20.90;99.90
26212;DHT22;13951;49.516;6.094;2022-08-05T06:21:44;20.80;99.90
26212;DHT22;13951;49.516;6.094;2022-08-05T06:24:21;20.90;99.90
26212;DHT22;13951;49.516;6.094;2022-08-05T06:26:59;20.80;99.90
26212;DHT22;13951;49.516;6.094;2022-08-05T06:29:34;20.80;99.90
26212;DHT22;13951;49.516;6.094;2022-08-05T06:32:28;20.80;99.90
26212;DHT22;13951;49.516;6.094;2022-08-05T06:35:01;20.90;99.90
26212;DHT22;13951;49.516;6.094;2022-08-05T06:37:50;20.90;99.90
26212;DHT22;13951;49.516;6.094;2022-08-05T06:40:31;20.90;99.90
26212;DHT22;13951;49.516;6.094;2022-08-05T06:43:04;20.90;99.90
26212;DHT22;13951;49.516;6.094;2022-08-05T06:45:58;20.80;99.90
26212;DHT22;13951;49.516;6.094;2022-08-05T06:48:38;20.80;99.90
26212;DHT22;13951;49.516;6.094;2022-08-05T06:51:29;20.80;99.90
26212;DHT22;13951;49.516;6.094;2022-08-05T06:54:03;20.80;99.90
26212;DHT22;13951;49.516;6.094;2022-08-05T06:56:36;20.70;99.90
26212;DHT22;13951;49.516;6.094;2022-08-05T06:59:09;20.70;99.90
26212;DHT22;13951;49.516;6.094;2022-08-05T07:01:46;20.80;99.90
26212;DHT22;13951;49.516;6.094;2022-08-05T07:04:24;20.70;99.90
26212;DHT22;13951;49.516;6.094;2022-08-05T07:06:58;20.70;99.90
26212;DHT22;13951;49.516;6.094;2022-08-05T07:09:31;20.70;99.90
26212;DHT22;13951;49.516;6.094;2022-08-05T07:14:53;20.70;99.90
26212;DHT22;13951;49.516;6.094;2022-08-05T07:18:05;20.60;99.90
26212;DHT22;13951;49.516;6.094;2022-08-05T07:20:42;20.60;99.90
26212;DHT22;13951;49.516;6.094;2022-08-05T07:23:16;20.60;99.90
26212;DHT22;13951;49.516;6.094;2022-08-05T07:26:01;20.60;99.90
26212;DHT22;13951;49.516;6.094;2022-08-05T07:28:35;20.60;99.90
26212;DHT22;13951;49.516;6.094;2022-08-05T07:31:08;20.70;99.90
26212;DHT22;13951;49.516;6.094;2022-08-05T07:33:43;20.70;99.90
26212;DHT22;13951;49.516;6.094;2022-08-05T07:36:16;20.70;99.90
26212;DHT22;13951;49.516;6.094;2022-08-05T07:39:14;20.60;99.90
26212;DHT22;13951;49.516;6.094;2022-08-05T07:42:25;20.60;99.90
26212;DHT22;13951;49.516;6.094;2022-08-05T07:45:09;20.60;99.90
26212;DHT22;13951;49.516;6.094;2022-08-05T07:47:48;20.60;99.90
26212;DHT22;13951;49.516;6.094;2022-08-05T07:50:27;20.60;99.90
26212;DHT22;13951;49.516;6.094;2022-08-05T07:53:05;20.60;99.90
26212;DHT22;13951;49.516;6.094;2022-08-05T07:55:39;20.60;99.90
26212;DHT22;13951;49.516;6.094;2022-08-05T07:58:32;20.60;99.90
26212;DHT22;13951;49.516;6.094;2022-08-05T08:01:25;20.70;99.90
26212;DHT22;13951;49.516;6.094;2022-08-05T08:04:01;20.80;99.90
26212;DHT22;13951;49.516;6.094;2022-08-05T08:06:36;20.80;99.90
26212;DHT22;13951;49.516;6.094;2022-08-05T08:09:09;20.80;99.90
26212;DHT22;13951;49.516;6.094;2022-08-05T08:11:43;20.80;99.90
26212;DHT22;13951;49.516;6.094;2022-08-05T08:14:25;20.80;99.90
26212;DHT22;13951;49.516;6.094;2022-08-05T08:16:59;20.80;99.90
26212;DHT22;13951;49.516;6.094;2022-08-05T08:19:32;20.70;99.90
26212;DHT22;13951;49.516;6.094;2022-08-05T08:22:28;20.70;99.90
26212;DHT22;13951;49.516;6.094;2022-08-05T08:25:05;20.70;99.90
26212;DHT22;13951;49.516;6.094;2022-08-05T08:27:48;20.80;99.90
26212;DHT22;13951;49.516;6.094;2022-08-05T08:30:23;20.80;99.90
26212;DHT22;13951;49.516;6.094;2022-08-05T08:33:10;20.80;99.90
26212;DHT22;13951;49.516;6.094;2022-08-05T08:35:46;20.80;99.90
26212;DHT22;13951;49.516;6.094;2022-08-05T08:38:39;20.90;99.90
26212;DHT22;13951;49.516;6.094;2022-08-05T08:41:13;20.90;99.90
26212;DHT22;13951;49.516;6.094;2022-08-05T08:43:49;20.90;99.90
26212;DHT22;13951;49.516;6.094;2022-08-05T08:46:47;20.90;99.90
26212;DHT22;13951;49.516;6.094;2022-08-05T08:49:37;20.90;99.90
26212;DHT22;13951;49.516;6.094;2022-08-05T08:52:32;20.90;99.90
26212;DHT22;13951;49.516;6.094;2022-08-05T08:55:09;20.80;99.90
26212;DHT22;13951;49.516;6.094;2022-08-05T08:57:51;20.80;99.90
26212;DHT22;13951;49.516;6.094;2022-08-05T09:00:30;20.80;99.90
26212;DHT22;13951;49.516;6.094;2022-08-05T09:03:07;20.70;99.90
26212;DHT22;13951;49.516;6.094;2022-08-05T09:05:41;20.70;99.90
26212;DHT22;13951;49.516;6.094;2022-08-05T09:08:35;20.80;99.90
26212;DHT22;13951;49.516;6.094;2022-08-05T09:11:12;20.80;99.90
26212;DHT22;13951;49.516;6.094;2022-08-05T09:13:47;20.80;99.90
26212;DHT22;13951;49.516;6.094;2022-08-05T09:16:40;20.80;99.90
26212;DHT22;13951;49.516;6.094;2022-08-05T09:19:20;20.80;99.90
26212;DHT22;13951;49.516;6.094;2022-08-05T09:21:59;20.90;99.90
26212;DHT22;13951;49.516;6.094;2022-08-05T09:25:00;20.90;99.90
26212;DHT22;13951;49.516;6.094;2022-08-05T09:27:45;21.00;99.90
26212;DHT22;13951;49.516;6.094;2022-08-05T09:31:14;21.00;99.90
26212;DHT22;13951;49.516;6.094;2022-08-05T09:34:07;21.30;99.90
26212;DHT22;13951;49.516;6.094;2022-08-05T09:36:49;21.70;99.90
26212;DHT22;13951;49.516;6.094;2022-08-05T09:39:28;22.00;99.90
26212;DHT22;13951;49.516;6.094;2022-08-05T09:42:19;22.30;99.90
26212;DHT22;13951;49.516;6.094;2022-08-05T09:45:05;22.50;99.90
26212;DHT22;13951;49.516;6.094;2022-08-05T09:47:59;22.70;99.90
26212;DHT22;13951;49.516;6.094;2022-08-05T09:50:36;22.80;99.90
26212;DHT22;13951;49.516;6.094;2022-08-05T09:53:17;22.70;99.90
26212;DHT22;13951;49.516;6.094;2022-08-05T09:56:11;22.70;99.90
26212;DHT22;13951;49.516;6.094;2022-08-05T09:59:08;22.90;99.90
26212;DHT22;13951;49.516;6.094;2022-08-05T10:01:48;22.90;99.90
26212;DHT22;13951;49.516;6.094;2022-08-05T10:04:35;22.90;99.90
26212;DHT22;13951;49.516;6.094;2022-08-05T10:07:10;22.80;99.90
26212;DHT22;13951;49.516;6.094;2022-08-05T10:09:55;22.70;99.90
26212;DHT22;13951;49.516;6.094;2022-08-05T10:12:51;22.60;99.90
26212;DHT22;13951;49.516;6.094;2022-08-05T10:15:30;22.50;99.90
26212;DHT22;13951;49.516;6.094;2022-08-05T10:18:20;22.60;99.90
26212;DHT22;13951;49.516;6.094;2022-08-05T10:21:03;22.50;99.90
26212;DHT22;13951;49.516;6.094;2022-08-05T10:23:40;22.50;99.90
26212;DHT22;13951;49.516;6.094;2022-08-05T10:26:33;22.50;99.90
26212;DHT22;13951;49.516;6.094;2022-08-05T10:29:08;22.40;99.90
26212;DHT22;13951;49.516;6.094;2022-08-05T10:31:41;22.40;99.90
26212;DHT22;13951;49.516;6.094;2022-08-05T10:34:34;22.50;99.90
26212;DHT22;13951;49.516;6.094;2022-08-05T10:37:12;22.50;99.90
26212;DHT22;13951;49.516;6.094;2022-08-05T10:39:48;22.50;99.90
26212;DHT22;13951;49.516;6.094;2022-08-05T10:42:43;22.60;99.90
26212;DHT22;13951;49.516;6.094;2022-08-05T10:45:27;22.90;99.90
26212;DHT22;13951;49.516;6.094;2022-08-05T10:48:43;23.20;99.90
26212;DHT22;13951;49.516;6.094;2022-08-05T10:51:47;23.50;99.90
26212;DHT22;13951;49.516;6.094;2022-08-05T10:57:28;24.00;99.90
26212;DHT22;13951;49.516;6.094;2022-08-05T11:00:15;24.00;99.90
26212;DHT22;13951;49.516;6.094;2022-08-05T11:06:08;23.90;99.90
26212;DHT22;13951;49.516;6.094;2022-08-05T11:11:49;23.90;99.90
26212;DHT22;13951;49.516;6.094;2022-08-05T11:14:33;24.00;99.90
26212;DHT22;13951;49.516;6.094;2022-08-05T11:17:29;23.90;99.90
26212;DHT22;13951;49.516;6.094;2022-08-05T11:26:28;23.90;99.90
26212;DHT22;13951;49.516;6.094;2022-08-05T11:29:04;24.00;99.90
26212;DHT22;13951;49.516;6.094;2022-08-05T11:31:45;24.00;99.90
26212;DHT22;13951;49.516;6.094;2022-08-05T11:34:35;24.10;99.90
26212;DHT22;13951;49.516;6.094;2022-08-05T11:37:09;24.10;99.90
26212;DHT22;13951;49.516;6.094;2022-08-05T11:40:03;24.10;99.90
26212;DHT22;13951;49.516;6.094;2022-08-05T11:42:39;24.20;99.90
26212;DHT22;13951;49.516;6.094;2022-08-05T11:45:17;24.20;99.90
26212;DHT22;13951;49.516;6.094;2022-08-05T11:48:10;24.20;99.90
26212;DHT22;13951;49.516;6.094;2022-08-05T11:50:49;24.20;99.90
26212;DHT22;13951;49.516;6.094;2022-08-05T11:53:24;24.20;99.90
26212;DHT22;13951;49.516;6.094;2022-08-05T11:55:59;24.30;99.90
26212;DHT22;13951;49.516;6.094;2022-08-05T11:58:34;24.40;99.90
26212;DHT22;13951;49.516;6.094;2022-08-05T12:01:09;24.50;99.90
26212;DHT22;13951;49.516;6.094;2022-08-05T12:03:53;24.70;99.90
26212;DHT22;13951;49.516;6.094;2022-08-05T12:06:28;24.70;99.90
26212;DHT22;13951;49.516;6.094;2022-08-05T12:09:02;24.60;99.90
26212;DHT22;13951;49.516;6.094;2022-08-05T12:11:37;24.50;99.90
26212;DHT22;13951;49.516;6.094;2022-08-05T12:14:12;24.40;99.90
26212;DHT22;13951;49.516;6.094;2022-08-05T12:16:46;24.30;99.90
26212;DHT22;13951;49.516;6.094;2022-08-05T12:19:19;24.40;99.90
26212;DHT22;13951;49.516;6.094;2022-08-05T12:22:17;24.30;99.90
26212;DHT22;13951;49.516;6.094;2022-08-05T12:24:52;24.20;99.90
26212;DHT22;13951;49.516;6.094;2022-08-05T12:27:28;24.30;99.90
26212;DHT22;13951;49.516;6.094;2022-08-05T12:30:10;24.20;99.90
26212;DHT22;13951;49.516;6.094;2022-08-05T12:32:47;24.20;99.90
26212;DHT22;13951;49.516;6.094;2022-08-05T12:35:28;24.10;99.90
26212;DHT22;13951;49.516;6.094;2022-08-05T12:38:11;24.20;99.90
26212;DHT22;13951;49.516;6.094;2022-08-05T12:40:47;24.40;99.90
26212;DHT22;13951;49.516;6.094;2022-08-05T12:43:22;24.60;99.90
26212;DHT22;13951;49.516;6.094;2022-08-05T12:45:55;24.80;99.90
26212;DHT22;13951;49.516;6.094;2022-08-05T12:48:37;25.00;99.90
26212;DHT22;13951;49.516;6.094;2022-08-05T12:51:14;25.10;99.90
26212;DHT22;13951;49.516;6.094;2022-08-05T12:54:21;25.10;99.90
26212;DHT22;13951;49.516;6.094;2022-08-05T12:57:00;25.10;99.90
26212;DHT22;13951;49.516;6.094;2022-08-05T12:59:54;25.10;99.90
26212;DHT22;13951;49.516;6.094;2022-08-05T13:02:47;25.20;99.90
26212;DHT22;13951;49.516;6.094;2022-08-05T13:05:27;25.20;99.90
26212;DHT22;13951;49.516;6.094;2022-08-05T13:08:09;25.40;99.90
26212;DHT22;13951;49.516;6.094;2022-08-05T13:10:42;25.40;99.90
26212;DHT22;13951;49.516;6.094;2022-08-05T13:13:26;25.30;99.90
26212;DHT22;13951;49.516;6.094;2022-08-05T13:16:19;25.40;99.90
26212;DHT22;13951;49.516;6.094;2022-08-05T13:18:57;25.50;99.90
26212;DHT22;13951;49.516;6.094;2022-08-05T13:21:30;25.50;99.90
26212;DHT22;13951;49.516;6.094;2022-08-05T13:24:23;25.60;99.90
26212;DHT22;13951;49.516;6.094;2022-08-05T13:27:31;25.70;99.90
26212;DHT22;13951;49.516;6.094;2022-08-05T13:30:13;25.80;99.90
26212;DHT22;13951;49.516;6.094;2022-08-05T13:33:06;25.70;99.90
26212;DHT22;13951;49.516;6.094;2022-08-05T13:35:39;25.60;99.90
26212;DHT22;13951;49.516;6.094;2022-08-05T13:38:23;25.60;99.90
26212;DHT22;13951;49.516;6.094;2022-08-05T13:41:07;25.60;99.90
26212;DHT22;13951;49.516;6.094;2022-08-05T13:43:41;25.70;99.90
26212;DHT22;13951;49.516;6.094;2022-08-05T13:46:26;25.60;99.90
26212;DHT22;13951;49.516;6.094;2022-08-05T13:49:19;25.60;99.90
26212;DHT22;13951;49.516;6.094;2022-08-05T13:51:53;25.50;99.90
26212;DHT22;13951;49.516;6.094;2022-08-05T13:54:25;25.40;99.90
26212;DHT22;13951;49.516;6.094;2022-08-05T13:56:58;25.40;99.90
26212;DHT22;13951;49.516;6.094;2022-08-05T13:59:32;25.40;99.90
26212;DHT22;13951;49.516;6.094;2022-08-05T14:02:09;25.30;99.90
26212;DHT22;13951;49.516;6.094;2022-08-05T14:04:51;25.30;99.90
26212;DHT22;13951;49.516;6.094;2022-08-05T14:07:43;25.20;99.90
26212;DHT22;13951;49.516;6.094;2022-08-05T14:10:36;25.20;99.90
26212;DHT22;13951;49.516;6.094;2022-08-05T14:13:10;25.20;99.90
26212;DHT22;13951;49.516;6.094;2022-08-05T14:15:47;25.20;99.90
26212;DHT22;13951;49.516;6.094;2022-08-05T14:18:38;25.20;99.90
26212;DHT22;13951;49.516;6.094;2022-08-05T14:21:12;25.20;99.90
26212;DHT22;13951;49.516;6.094;2022-08-05T14:24:05;25.10;99.90
26212;DHT22;13951;49.516;6.094;2022-08-05T14:26:41;25.10;99.90
26212;DHT22;13951;49.516;6.094;2022-08-05T14:29:34;25.10;99.90
26212;DHT22;13951;49.516;6.094;2022-08-05T14:32:07;25.10;99.90
26212;DHT22;13951;49.516;6.094;2022-08-05T14:34:58;25.10;99.90
26212;DHT22;13951;49.516;6.094;2022-08-05T14:37:31;25.10;99.90
26212;DHT22;13951;49.516;6.094;2022-08-05T14:40:20;25.10;99.90
26212;DHT22;13951;49.516;6.094;2022-08-05T14:42:56;25.20;99.90
26212;DHT22;13951;49.516;6.094;2022-08-05T14:45:30;25.10;99.90
26212;DHT22;13951;49.516;6.094;2022-08-05T14:48:03;25.00;99.90
26212;DHT22;13951;49.516;6.094;2022-08-05T14:50:40;25.10;99.90
26212;DHT22;13951;49.516;6.094;2022-08-05T14:53:14;25.00;99.90
26212;DHT22;13951;49.516;6.094;2022-08-05T14:55:47;25.00;99.90
26212;DHT22;13951;49.516;6.094;2022-08-05T14:58:24;25.00;99.90
26212;DHT22;13951;49.516;6.094;2022-08-05T15:00:57;25.10;99.90
26212;DHT22;13951;49.516;6.094;2022-08-05T15:03:33;25.10;99.90
26212;DHT22;13951;49.516;6.094;2022-08-05T15:06:11;25.10;99.90
26212;DHT22;13951;49.516;6.094;2022-08-05T15:08:47;25.10;99.90
26212;DHT22;13951;49.516;6.094;2022-08-05T15:11:35;25.10;99.90
26212;DHT22;13951;49.516;6.094;2022-08-05T15:14:24;25.00;99.90
26212;DHT22;13951;49.516;6.094;2022-08-05T15:17:14;25.00;99.90
26212;DHT22;13951;49.516;6.094;2022-08-05T15:20:09;25.00;99.90
26212;DHT22;13951;49.516;6.094;2022-08-05T15:22:51;24.90;99.90
26212;DHT22;13951;49.516;6.094;2022-08-05T15:25:26;24.80;99.90
26212;DHT22;13951;49.516;6.094;2022-08-05T15:28:21;24.80;99.90
26212;DHT22;13951;49.516;6.094;2022-08-05T15:30:59;24.70;99.90
26212;DHT22;13951;49.516;6.094;2022-08-05T15:33:37;24.70;99.90
26212;DHT22;13951;49.516;6.094;2022-08-05T15:36:30;24.60;99.90
26212;DHT22;13951;49.516;6.094;2022-08-05T15:39:05;24.60;99.90
26212;DHT22;13951;49.516;6.094;2022-08-05T15:42:00;24.60;99.90
26212;DHT22;13951;49.516;6.094;2022-08-05T15:44:53;24.50;99.90
26212;DHT22;13951;49.516;6.094;2022-08-05T15:47:26;24.50;99.90
26212;DHT22;13951;49.516;6.094;2022-08-05T15:50:01;24.40;99.90
26212;DHT22;13951;49.516;6.094;2022-08-05T15:52:35;24.40;99.90
26212;DHT22;13951;49.516;6.094;2022-08-05T15:55:26;24.40;99.90
26212;DHT22;13951;49.516;6.094;2022-08-05T15:58:19;24.40;99.90
26212;DHT22;13951;49.516;6.094;2022-08-05T16:00:55;24.50;99.90
26212;DHT22;13951;49.516;6.094;2022-08-05T16:03:47;24.50;99.90
26212;DHT22;13951;49.516;6.094;2022-08-05T16:06:22;24.50;99.90
26212;DHT22;13951;49.516;6.094;2022-08-05T16:08:55;24.50;99.90
26212;DHT22;13951;49.516;6.094;2022-08-05T16:11:29;24.50;99.90
26212;DHT22;13951;49.516;6.094;2022-08-05T16:14:14;24.50;99.90
26212;DHT22;13951;49.516;6.094;2022-08-05T16:16:49;24.60;99.90
26212;DHT22;13951;49.516;6.094;2022-08-05T16:19:22;24.60;99.90
26212;DHT22;13951;49.516;6.094;2022-08-05T16:22:16;24.50;99.60
26212;DHT22;13951;49.516;6.094;2022-08-05T16:24:49;24.50;99.90
26212;DHT22;13951;49.516;6.094;2022-08-05T16:27:23;24.50;99.90
26212;DHT22;13951;49.516;6.094;2022-08-05T16:30:17;24.50;99.80
26212;DHT22;13951;49.516;6.094;2022-08-05T16:33:00;24.50;98.90
26212;DHT22;13951;49.516;6.094;2022-08-05T16:35:34;24.40;99.90
26212;DHT22;13951;49.516;6.094;2022-08-05T16:38:17;24.50;99.90
26212;DHT22;13951;49.516;6.094;2022-08-05T16:41:00;24.50;99.90
26212;DHT22;13951;49.516;6.094;2022-08-05T16:43:53;24.60;99.30
26212;DHT22;13951;49.516;6.094;2022-08-05T16:46:28;24.60;99.40
26212;DHT22;13951;49.516;6.094;2022-08-05T16:49:04;24.50;99.00
26212;DHT22;13951;49.516;6.094;2022-08-05T16:51:38;24.40;98.50
26212;DHT22;13951;49.516;6.094;2022-08-05T16:54:26;24.20;98.90
26212;DHT22;13951;49.516;6.094;2022-08-05T16:57:04;24.10;99.10
26212;DHT22;13951;49.516;6.094;2022-08-05T16:59:53;24.00;99.90
26212;DHT22;13951;49.516;6.094;2022-08-05T17:02:39;24.00;99.40
26212;DHT22;13951;49.516;6.094;2022-08-05T17:05:12;23.90;99.30
26212;DHT22;13951;49.516;6.094;2022-08-05T17:07:48;23.90;99.90
26212;DHT22;13951;49.516;6.094;2022-08-05T17:10:27;23.80;99.90
26212;DHT22;13951;49.516;6.094;2022-08-05T17:13:02;23.80;99.90
26212;DHT22;13951;49.516;6.094;2022-08-05T17:15:36;23.80;99.90
26212;DHT22;13951;49.516;6.094;2022-08-05T17:18:23;23.80;99.90
26212;DHT22;13951;49.516;6.094;2022-08-05T17:20:57;23.80;99.90
26212;DHT22;13951;49.516;6.094;2022-08-05T17:23:30;23.80;99.90
26212;DHT22;13951;49.516;6.094;2022-08-05T17:26:23;23.80;99.90
26212;DHT22;13951;49.516;6.094;2022-08-05T17:28:57;23.80;99.90
26212;DHT22;13951;49.516;6.094;2022-08-05T17:31:30;23.70;99.90
26212;DHT22;13951;49.516;6.094;2022-08-05T17:34:23;23.70;99.90
26212;DHT22;13951;49.516;6.094;2022-08-05T17:37:05;23.60;99.90